Bengaluru International Airport


Codes: VOBL/BLR
Name: Bengaluru International Airport
City: Bangalore
Country: India
Elevation: 3000 ft.
Website:
Wikipedia:

Photos at Bengaluru International Airport


   Photos courtesy of SpottingLog. You can add your own sightings and photos by signing up for a free trial today.



VT-IJM, 27-Feb-2020
© Paul Newman

9V-SHA, 26-Feb-2020
© Paul Newman


Weather at Bengaluru International Airport


Time (UTC)DescriptionTempratureWindCloud coverageVisibilityPressureHumidity
17-Jun-2024 06:00Scattered Clouds27°C9 mph, W46%10000m1013hPa61%
17-Jun-2024 09:00Broken Clouds29°C9 mph, W73%10000m1009hPa51%
17-Jun-2024 12:00Light Rain29°C11 mph, W100%10000m1007hPa49%
17-Jun-2024 15:00Light Rain28°C9 mph, W100%10000m1008hPa58%
17-Jun-2024 18:00Light Rain25°C11 mph, W100%10000m1009hPa68%
17-Jun-2024 21:00Light Rain24°C11 mph, W100%10000m1007hPa77%
18-Jun-2024 00:00Overcast Clouds22°C9 mph, W100%10000m1009hPa83%
18-Jun-2024 03:00Overcast Clouds25°C11 mph, W100%10000m1011hPa72%
18-Jun-2024 06:00Overcast Clouds26°C11 mph, W100%10000m1010hPa64%
18-Jun-2024 09:00Overcast Clouds27°C11 mph, W100%10000m1007hPa61%
18-Jun-2024 12:00Light Rain29°C9 mph, W100%10000m1006hPa51%
18-Jun-2024 15:00Light Rain25°C13 mph, W100%5400m1008hPa68%
18-Jun-2024 18:00Moderate Rain24°C9 mph, W100%10000m1009hPa76%
18-Jun-2024 21:00Moderate Rain22°C9 mph, W100%10000m1008hPa83%
19-Jun-2024 00:00Overcast Clouds22°C9 mph, W100%10000m1009hPa85%
19-Jun-2024 03:00Overcast Clouds24°C13 mph, W94%10000m1010hPa72%
19-Jun-2024 06:00Broken Clouds28°C13 mph, W80%10000m1008hPa53%
19-Jun-2024 09:00Scattered Clouds30°C13 mph, W49%10000m1006hPa41%
19-Jun-2024 12:00Broken Clouds30°C11 mph, W53%10000m1005hPa39%
19-Jun-2024 15:00Broken Clouds26°C13 mph, W60%10000m1008hPa60%
19-Jun-2024 18:00Light Rain24°C13 mph, W81%10000m1009hPa71%
19-Jun-2024 21:00Overcast Clouds22°C13 mph, W100%10000m1008hPa79%
20-Jun-2024 00:00Overcast Clouds21°C13 mph, W100%10000m1009hPa84%
20-Jun-2024 03:00Overcast Clouds23°C16 mph, W97%10000m1010hPa71%
20-Jun-2024 06:00Overcast Clouds28°C16 mph, W98%10000m1009hPa52%
20-Jun-2024 09:00Overcast Clouds29°C16 mph, W99%10000m1006hPa43%
20-Jun-2024 12:00Overcast Clouds27°C13 mph, W99%10000m1007hPa54%
20-Jun-2024 15:00Light Rain24°C16 mph, W100%10000m1010hPa68%
20-Jun-2024 18:00Light Rain22°C16 mph, W94%10000m1010hPa75%
20-Jun-2024 21:00Broken Clouds21°C16 mph, W52%10000m1008hPa81%
21-Jun-2024 00:00Broken Clouds20°C13 mph, W76%10000m1009hPa82%
21-Jun-2024 03:00Overcast Clouds23°C16 mph, W100%10000m1010hPa74%
21-Jun-2024 06:00Overcast Clouds27°C16 mph, W100%10000m1009hPa57%
21-Jun-2024 09:00Overcast Clouds28°C13 mph, W100%10000m1007hPa48%
21-Jun-2024 12:00Light Rain26°C9 mph, W100%10000m1007hPa59%
21-Jun-2024 15:00Moderate Rain23°C13 mph, W99%8436m1010hPa79%
21-Jun-2024 18:00Light Rain22°C13 mph, W97%10000m1010hPa82%
21-Jun-2024 21:00Broken Clouds20°C16 mph, W72%10000m1008hPa86%
22-Jun-2024 00:00Broken Clouds20°C13 mph, W83%10000m1008hPa87%
22-Jun-2024 03:00Overcast Clouds22°C16 mph, W100%10000m1009hPa79%